Time;durP1;ratioP1;P1;durP2;ratioP2;P2;SDS_P1;SDS_P2;PMS_P1;PMS_P2;Temp;Humidity;BMP_temperature;BMP_pressure;BME280_temperature;BME280_humidity;BME280_pressure;Samples;Min_cycle;Max_cycle;Signal;HPM_P1;HPM_P2
2022/10/16 00:01:59;;;;;;;4.40;2.83;;;12.00;99.90;;;;;;5003934;28;20061;-70
2022/10/16 00:04:25;;;;;;;8.73;2.85;;;12.00;99.90;;;;;;4988153;28;20034;-70
2022/10/16 00:06:51;;;;;;;6.28;2.70;;;12.10;99.90;;;;;;5001270;28;20128;-70
2022/10/16 00:09:17;;;;;;;7.55;2.65;;;12.10;99.90;;;;;;4974273;28;20416;-71
2022/10/16 00:11:42;;;;;;;7.47;2.80;;;12.20;99.90;;;;;;5002656;28;20042;-70
2022/10/16 00:14:12;;;;;;;4.95;2.63;;;12.10;99.90;;;;;;4990553;28;20044;-71
2022/10/16 00:16:38;;;;;;;7.97;2.63;;;12.10;99.90;;;;;;5004935;28;20042;-70
2022/10/16 00:19:05;;;;;;;6.88;2.70;;;12.20;99.90;;;;;;4977701;28;20042;-71
2022/10/16 00:21:31;;;;;;;7.00;3.08;;;12.10;99.90;;;;;;4986193;28;20038;-70
2022/10/16 00:24:00;;;;;;;5.97;3.08;;;12.10;99.90;;;;;;5005297;28;20048;-70
2022/10/16 00:26:28;;;;;;;7.70;3.00;;;12.10;99.90;;;;;;5005640;28;20502;-70
2022/10/16 00:28:54;;;;;;;6.60;2.75;;;12.10;99.90;;;;;;5002401;28;20041;-70
2022/10/16 00:31:22;;;;;;;4.72;2.70;;;12.10;99.90;;;;;;4972748;28;20393;-70
2022/10/16 00:33:48;;;;;;;7.75;2.47;;;12.10;99.90;;;;;;4986841;28;20125;-70
2022/10/16 00:36:17;;;;;;;8.55;3.35;;;12.10;99.90;;;;;;5001273;28;20038;-70
2022/10/16 00:38:43;;;;;;;5.45;2.95;;;12.10;99.90;;;;;;5006009;28;20423;-70
2022/10/16 00:41:16;;;;;;;11.25;3.25;;;12.10;99.90;;;;;;4982449;28;20074;-71
2022/10/16 00:43:44;;;;;;;10.52;3.10;;;12.10;99.90;;;;;;4985647;28;20080;-70
2022/10/16 00:46:15;;;;;;;5.03;3.08;;;12.10;99.90;;;;;;5004317;28;20096;-70
2022/10/16 00:48:45;;;;;;;10.35;3.22;;;12.10;99.90;;;;;;5001025;28;20049;-70
2022/10/16 00:51:11;;;;;;;6.50;2.80;;;12.10;99.90;;;;;;5002439;28;20044;-70
2022/10/16 00:53:37;;;;;;;7.03;2.90;;;12.10;99.90;;;;;;4998764;28;20105;-71
2022/10/16 00:56:03;;;;;;;8.63;3.05;;;12.10;99.90;;;;;;4984335;28;20133;-71
2022/10/16 00:58:29;;;;;;;8.27;3.08;;;12.10;99.90;;;;;;4966490;28;20392;-70
2022/10/16 01:00:55;;;;;;;6.40;2.78;;;12.10;99.90;;;;;;5001525;28;20045;-71
2022/10/16 01:03:33;;;;;;;10.23;3.38;;;12.10;99.90;;;;;;4985924;28;20038;-71
2022/10/16 01:06:14;;;;;;;6.78;3.00;;;12.10;99.90;;;;;;4999719;28;20528;-70
2022/10/16 01:09:14;;;;;;;6.55;3.00;;;12.10;99.90;;;;;;5002847;28;20129;-69
2022/10/16 01:12:01;;;;;;;6.15;3.00;;;12.00;99.90;;;;;;4984065;28;20583;-71
2022/10/16 01:14:47;;;;;;;9.85;3.40;;;12.00;99.90;;;;;;5005144;28;20118;-70
2022/10/16 01:17:38;;;;;;;6.50;3.20;;;12.00;99.90;;;;;;5002634;28;20049;-71
2022/10/16 01:20:22;;;;;;;8.02;3.63;;;12.00;99.90;;;;;;5001260;28;20480;-71
2022/10/16 01:23:01;;;;;;;5.85;2.80;;;12.00;99.90;;;;;;5003731;28;20038;-70
2022/10/16 01:25:45;;;;;;;7.65;2.92;;;12.00;99.90;;;;;;4985540;28;20050;-71
2022/10/16 01:28:12;;;;;;;5.88;3.10;;;12.00;99.90;;;;;;4998863;28;20046;-70
2022/10/16 01:30:41;;;;;;;5.88;2.70;;;12.10;99.90;;;;;;5001773;28;20042;-70
2022/10/16 01:33:16;;;;;;;5.35;3.03;;;12.10;99.90;;;;;;4985950;28;20407;-71
2022/10/16 01:35:46;;;;;;;6.20;2.78;;;12.00;99.90;;;;;;5001570;28;20384;-71
2022/10/16 01:38:25;;;;;;;5.75;2.70;;;12.00;99.90;;;;;;5004635;28;20049;-70
2022/10/16 01:40:58;;;;;;;5.55;3.10;;;12.10;99.90;;;;;;5001705;28;20061;-70
2022/10/16 01:43:56;;;;;;;6.90;2.83;;;12.00;99.90;;;;;;5003003;28;20125;-71
2022/10/16 01:46:23;;;;;;;7.63;2.70;;;12.00;99.90;;;;;;4999397;28;20666;-71
2022/10/16 01:48:50;;;;;;;6.40;2.95;;;12.00;99.90;;;;;;4981017;28;20049;-70
2022/10/16 01:51:19;;;;;;;5.85;2.85;;;12.00;99.90;;;;;;4982693;28;20085;-70
2022/10/16 01:53:51;;;;;;;7.55;3.60;;;12.00;99.90;;;;;;5004245;28;20510;-70
2022/10/16 01:56:20;;;;;;;7.82;3.00;;;12.00;99.90;;;;;;5001404;28;20045;-70
2022/10/16 01:58:52;;;;;;;6.47;3.63;;;12.00;99.90;;;;;;5001217;28;20041;-69
2022/10/16 02:01:20;;;;;;;7.53;3.30;;;11.90;99.90;;;;;;5001042;28;20037;-70
2022/10/16 02:03:49;;;;;;;5.35;3.28;;;12.00;99.90;;;;;;4982324;28;20049;-71
2022/10/16 02:06:15;;;;;;;5.05;3.20;;;12.00;99.90;;;;;;4985942;28;20416;-70
2022/10/16 02:08:43;;;;;;;6.75;3.47;;;11.90;99.90;;;;;;5000015;28;20134;-70
2022/10/16 02:11:11;;;;;;;4.35;2.72;;;12.00;99.90;;;;;;4998942;28;20648;-68
2022/10/16 02:13:50;;;;;;;7.65;2.70;;;11.90;99.90;;;;;;4987301;28;20045;-71
2022/10/16 02:16:16;;;;;;;7.18;3.03;;;11.90;99.90;;;;;;5003090;28;20045;-71
2022/10/16 02:18:43;;;;;;;7.32;3.72;;;12.00;99.90;;;;;;4988366;28;20046;-70
2022/10/16 02:21:18;;;;;;;7.88;2.88;;;12.00;99.90;;;;;;5001593;28;20131;-71
2022/10/16 02:23:59;;;;;;;5.43;3.00;;;12.00;99.90;;;;;;5005206;28;20547;-71
2022/10/16 02:26:45;;;;;;;8.98;4.25;;;12.10;99.90;;;;;;4983606;28;20053;-70
2022/10/16 02:29:16;;;;;;;7.15;2.53;;;12.00;99.90;;;;;;5003086;28;20034;-70
2022/10/16 02:31:47;;;;;;;6.97;3.25;;;12.00;99.90;;;;;;4998732;28;20112;-71
2022/10/16 02:34:14;;;;;;;7.97;2.80;;;12.00;99.90;;;;;;4988400;28;20121;-70
2022/10/16 02:36:41;;;;;;;3.95;2.70;;;12.00;99.90;;;;;;5005458;28;20459;-70
2022/10/16 02:39:09;;;;;;;5.57;2.72;;;12.00;99.90;;;;;;5007179;28;20102;-70
2022/10/16 02:41:35;;;;;;;9.52;3.10;;;12.00;99.90;;;;;;5005694;28;20053;-70
2022/10/16 02:44:01;;;;;;;6.50;3.47;;;12.00;99.90;;;;;;5006141;28;20046;-70
2022/10/16 02:46:26;;;;;;;4.45;2.63;;;12.00;99.90;;;;;;5007051;28;20213;-70
2022/10/16 02:48:52;;;;;;;8.18;2.97;;;12.00;99.90;;;;;;4988158;28;20069;-70
2022/10/16 02:51:18;;;;;;;6.82;2.65;;;12.00;99.90;;;;;;4989488;28;20076;-70
2022/10/16 02:53:44;;;;;;;8.18;3.45;;;12.00;99.90;;;;;;5004728;28;20041;-71
2022/10/16 02:56:09;;;;;;;8.85;2.70;;;12.10;99.90;;;;;;4984137;28;20038;-70
2022/10/16 02:58:35;;;;;;;5.00;2.45;;;12.10;99.90;;;;;;5003488;28;20053;-70
2022/10/16 03:01:01;;;;;;;6.45;2.72;;;12.10;99.90;;;;;;5007000;28;20096;-70
2022/10/16 03:03:27;;;;;;;4.72;2.85;;;12.10;99.90;;;;;;4988589;28;20129;-71
2022/10/16 03:05:53;;;;;;;4.97;2.47;;;12.10;99.90;;;;;;4983007;28;20536;-70
2022/10/16 03:08:23;;;;;;;8.88;3.95;;;12.10;99.90;;;;;;5006013;28;20050;-70
2022/10/16 03:10:49;;;;;;;6.95;3.03;;;12.10;99.90;;;;;;5005348;28;20502;-70
2022/10/16 03:13:15;;;;;;;7.93;2.80;;;12.10;99.90;;;;;;5002305;28;20440;-70
2022/10/16 03:15:40;;;;;;;5.85;3.17;;;12.10;99.90;;;;;;4988923;28;20077;-70
2022/10/16 03:18:06;;;;;;;4.95;2.90;;;12.20;99.90;;;;;;5001924;28;20050;-70
2022/10/16 03:20:32;;;;;;;11.57;2.83;;;12.20;99.90;;;;;;5007677;28;20045;-70
2022/10/16 03:22:58;;;;;;;4.78;2.60;;;12.30;99.90;;;;;;5003978;28;20038;-71
2022/10/16 03:25:23;;;;;;;4.45;2.80;;;12.30;99.90;;;;;;5002676;28;20034;-70
2022/10/16 03:27:49;;;;;;;4.50;2.40;;;12.30;99.90;;;;;;5002795;28;20124;-70
2022/10/16 03:30:16;;;;;;;6.70;2.95;;;12.30;99.90;;;;;;5004052;28;20042;-69
2022/10/16 03:32:43;;;;;;;8.65;2.80;;;12.30;99.90;;;;;;4984776;28;20073;-70
2022/10/16 03:35:09;;;;;;;6.88;3.00;;;12.40;99.90;;;;;;5004710;28;20041;-70
2022/10/16 03:37:35;;;;;;;7.40;3.28;;;12.40;99.90;;;;;;4984894;28;20038;-70
2022/10/16 03:40:01;;;;;;;5.63;3.17;;;12.40;99.90;;;;;;5008770;28;20132;-70
2022/10/16 03:42:27;;;;;;;7.78;3.20;;;12.40;99.90;;;;;;5003644;28;20057;-71
2022/10/16 03:44:52;;;;;;;5.32;3.00;;;12.40;99.90;;;;;;5024868;28;20040;-70
2022/10/16 03:47:21;;;;;;;5.05;3.22;;;12.40;99.90;;;;;;4992139;28;20037;-70
2022/10/16 03:49:47;;;;;;;5.78;2.85;;;12.40;99.90;;;;;;5007329;28;20241;-70
2022/10/16 03:52:13;;;;;;;4.80;3.10;;;12.50;99.90;;;;;;5026465;28;21069;-71
2022/10/16 03:54:39;;;;;;;9.60;3.20;;;12.40;99.90;;;;;;5004824;28;20128;-70
2022/10/16 03:57:05;;;;;;;5.90;3.58;;;12.40;99.90;;;;;;4993892;28;20253;-70
2022/10/16 03:59:30;;;;;;;6.25;3.00;;;12.50;99.90;;;;;;4992103;28;20557;-70
2022/10/16 04:01:56;;;;;;;5.05;2.90;;;12.40;99.90;;;;;;5024949;28;20080;-71
2022/10/16 04:04:22;;;;;;;4.32;2.70;;;12.40;99.90;;;;;;5006586;28;20041;-70
2022/10/16 04:06:48;;;;;;;4.65;2.95;;;12.40;99.90;;;;;;5008686;28;20064;-70
2022/10/16 04:09:13;;;;;;;4.85;2.80;;;12.40;99.90;;;;;;5009969;28;20450;-70
2022/10/16 04:11:39;;;;;;;5.35;3.47;;;12.40;99.90;;;;;;4987629;28;20509;-71
2022/10/16 04:14:05;;;;;;;5.35;3.67;;;12.40;99.90;;;;;;4988390;28;20037;-71
2022/10/16 04:16:30;;;;;;;7.28;3.55;;;12.40;99.90;;;;;;5009606;28;20042;-70
2022/10/16 04:18:56;;;;;;;6.55;3.40;;;12.40;99.90;;;;;;5008516;28;20045;-69
2022/10/16 04:21:22;;;;;;;7.60;3.50;;;12.40;99.90;;;;;;4991894;28;20091;-69
2022/10/16 04:23:49;;;;;;;9.98;3.70;;;12.40;99.90;;;;;;5026037;28;20034;-70
2022/10/16 04:26:14;;;;;;;7.78;3.78;;;12.40;99.90;;;;;;5009942;28;20057;-70
2022/10/16 04:28:40;;;;;;;4.60;3.65;;;12.40;99.90;;;;;;5005460;28;20064;-70
2022/10/16 04:31:06;;;;;;;7.88;4.10;;;12.40;99.90;;;;;;5009906;28;20042;-69
2022/10/16 04:33:33;;;;;;;5.68;4.10;;;12.40;99.90;;;;;;4971597;28;20555;-70
2022/10/16 04:36:00;;;;;;;5.95;3.75;;;12.40;99.90;;;;;;4991566;28;20037;-70
2022/10/16 04:38:26;;;;;;;8.15;4.43;;;12.40;99.90;;;;;;5007516;28;20053;-70
2022/10/16 04:40:52;;;;;;;6.53;3.90;;;12.40;99.90;;;;;;5003742;28;20111;-70
2022/10/16 04:43:18;;;;;;;5.47;4.22;;;12.30;99.90;;;;;;5025102;28;20502;-70
2022/10/16 04:45:44;;;;;;;9.05;4.30;;;12.30;99.90;;;;;;4987384;28;20048;-70
2022/10/16 04:48:10;;;;;;;6.97;4.32;;;12.30;99.90;;;;;;4985576;28;20042;-70
2022/10/16 04:50:36;;;;;;;8.07;4.22;;;12.30;99.90;;;;;;4987072;28;20038;-70
2022/10/16 04:53:02;;;;;;;7.25;4.28;;;12.30;99.90;;;;;;4991356;28;20032;-70
2022/10/16 04:55:28;;;;;;;6.25;4.32;;;12.30;99.90;;;;;;5005832;28;20482;-70
2022/10/16 04:57:53;;;;;;;6.15;4.15;;;12.30;99.90;;;;;;5007070;28;20041;-70
2022/10/16 05:00:19;;;;;;;5.20;4.40;;;12.30;99.90;;;;;;5025574;28;20509;-70
2022/10/16 05:02:45;;;;;;;6.63;4.85;;;12.20;99.90;;;;;;5007815;28;20246;-72
2022/10/16 05:05:11;;;;;;;6.60;3.97;;;12.30;99.90;;;;;;5006806;28;20128;-70
2022/10/16 05:07:37;;;;;;;6.65;4.32;;;12.30;99.90;;;;;;5025034;28;20054;-70
2022/10/16 05:10:03;;;;;;;7.00;4.40;;;12.30;99.90;;;;;;5004114;28;20469;-70
2022/10/16 05:12:29;;;;;;;7.63;4.55;;;12.30;99.90;;;;;;4984645;28;20079;-70
2022/10/16 05:14:58;;;;;;;5.43;4.15;;;12.30;99.90;;;;;;5004917;28;20048;-70
2022/10/16 05:17:25;;;;;;;8.80;4.43;;;12.30;99.90;;;;;;4988228;28;20072;-70
2022/10/16 05:19:51;;;;;;;4.90;4.10;;;12.30;99.90;;;;;;4972274;28;20084;-70
2022/10/16 05:22:16;;;;;;;4.30;3.60;;;12.20;99.90;;;;;;4988144;28;20069;-70
2022/10/16 05:24:42;;;;;;;5.22;4.13;;;12.20;99.90;;;;;;5000116;28;20128;-70
2022/10/16 05:27:08;;;;;;;16.77;5.68;;;12.20;99.90;;;;;;4990153;28;20505;-70
2022/10/16 05:29:34;;;;;;;9.60;4.65;;;12.20;99.90;;;;;;4987743;28;20033;-69
2022/10/16 05:32:00;;;;;;;6.97;4.43;;;12.20;99.90;;;;;;5003929;28;20037;-70
2022/10/16 05:34:26;;;;;;;6.55;4.38;;;12.20;99.90;;;;;;5023392;28;20453;-70
2022/10/16 05:36:52;;;;;;;7.63;4.40;;;12.10;99.90;;;;;;5005622;28;20048;-70
2022/10/16 05:39:18;;;;;;;7.05;4.97;;;12.10;99.90;;;;;;5004086;28;20038;-70
2022/10/16 05:41:44;;;;;;;5.93;4.25;;;12.10;99.90;;;;;;5003259;28;20053;-70
2022/10/16 05:44:11;;;;;;;6.22;4.30;;;12.10;99.90;;;;;;5004038;28;20451;-70
2022/10/16 05:46:37;;;;;;;6.47;3.97;;;12.10;99.90;;;;;;5001095;28;20487;-70
2022/10/16 05:49:03;;;;;;;10.10;4.50;;;12.10;99.90;;;;;;4986880;28;20033;-69
2022/10/16 05:51:28;;;;;;;8.18;4.00;;;12.10;99.90;;;;;;4983409;28;20030;-70
2022/10/16 05:53:54;;;;;;;7.97;4.35;;;12.10;99.90;;;;;;5004509;28;20530;-70
2022/10/16 05:56:20;;;;;;;7.32;4.15;;;12.10;99.90;;;;;;5003227;28;20699;-70
2022/10/16 05:58:45;;;;;;;5.47;4.03;;;12.10;99.90;;;;;;5005262;28;20454;-69
2022/10/16 06:01:14;;;;;;;7.55;4.07;;;12.10;99.90;;;;;;4985188;28;20050;-70
2022/10/16 06:03:40;;;;;;;8.43;4.22;;;12.10;99.90;;;;;;4971201;28;20042;-70
2022/10/16 06:06:32;;;;;;;6.88;3.72;;;12.20;99.90;;;;;;4997664;28;20054;-69
2022/10/16 06:08:59;;;;;;;6.47;3.95;;;12.10;99.90;;;;;;4997173;28;20045;-70
2022/10/16 06:11:28;;;;;;;6.25;4.35;;;12.10;99.90;;;;;;4981752;28;20050;-70
2022/10/16 06:13:59;;;;;;;7.15;4.07;;;12.20;99.90;;;;;;5003008;28;20104;-70
2022/10/16 06:16:26;;;;;;;5.35;3.60;;;12.10;99.90;;;;;;4999667;28;20518;-69
2022/10/16 06:18:53;;;;;;;6.82;3.85;;;12.20;99.90;;;;;;4982964;28;20046;-69
2022/10/16 06:21:26;;;;;;;10.48;3.30;;;12.10;99.90;;;;;;5002733;28;20034;-69
2022/10/16 06:23:52;;;;;;;7.88;3.42;;;12.20;99.90;;;;;;5002530;28;20128;-70
2022/10/16 06:26:22;;;;;;;6.40;3.65;;;12.20;99.90;;;;;;5004001;28;20069;-69
2022/10/16 06:28:48;;;;;;;6.35;3.45;;;12.20;99.90;;;;;;5003074;28;20042;-70
2022/10/16 06:31:14;;;;;;;5.70;3.40;;;12.20;99.90;;;;;;5003884;28;20133;-70
2022/10/16 06:33:45;;;;;;;6.68;3.03;;;12.20;99.90;;;;;;4980962;28;20038;-70
2022/10/16 06:36:17;;;;;;;6.25;3.17;;;12.30;99.90;;;;;;4980155;28;20430;-70
2022/10/16 06:38:43;;;;;;;4.93;3.40;;;12.30;99.90;;;;;;4996666;28;20050;-70
2022/10/16 06:41:13;;;;;;;5.25;2.95;;;12.30;99.90;;;;;;4994382;28;20088;-70
2022/10/16 06:43:38;;;;;;;5.95;3.38;;;12.30;99.90;;;;;;5001406;28;20046;-70
2022/10/16 06:46:07;;;;;;;5.53;3.30;;;12.30;99.90;;;;;;4985396;28;20054;-70
2022/10/16 06:48:33;;;;;;;4.85;3.58;;;12.30;99.90;;;;;;5003770;28;20160;-70
2022/10/16 06:51:11;;;;;;;7.32;3.40;;;12.30;99.90;;;;;;5002246;28;20048;-70
2022/10/16 06:53:39;;;;;;;4.95;3.15;;;12.40;99.90;;;;;;5005055;28;20440;-70
2022/10/16 06:56:18;;;;;;;3.67;2.50;;;12.40;99.90;;;;;;5000996;28;20053;-70
2022/10/16 06:58:44;;;;;;;5.97;3.00;;;12.40;99.90;;;;;;5000491;28;20484;-70
2022/10/16 07:01:11;;;;;;;4.68;2.80;;;12.40;99.90;;;;;;4985414;28;20046;-69
2022/10/16 07:03:41;;;;;;;9.40;3.13;;;12.40;99.90;;;;;;5000923;28;20049;-70
2022/10/16 07:06:09;;;;;;;5.43;3.03;;;12.50;99.90;;;;;;4999650;28;20045;-70
2022/10/16 07:08:37;;;;;;;6.35;3.38;;;12.50;99.90;;;;;;5001684;28;20046;-69
2022/10/16 07:11:08;;;;;;;9.35;3.30;;;12.50;99.90;;;;;;4984470;28;20052;-70
2022/10/16 07:13:38;;;;;;;7.47;3.38;;;12.50;99.90;;;;;;5000557;28;20038;-70
2022/10/16 07:16:10;;;;;;;5.85;3.08;;;12.60;99.90;;;;;;5001898;28;20089;-70
2022/10/16 07:18:38;;;;;;;4.55;3.22;;;12.60;99.90;;;;;;4998699;28;20049;-70
2022/10/16 07:21:10;;;;;;;6.18;3.47;;;12.60;99.90;;;;;;4993661;28;20108;-69
2022/10/16 07:23:36;;;;;;;6.27;3.07;;;12.60;99.90;;;;;;5001768;28;20041;-70
2022/10/16 07:26:04;;;;;;;10.57;3.63;;;12.70;99.90;;;;;;5018376;28;20350;-70
2022/10/16 07:28:31;;;;;;;5.88;3.00;;;12.70;99.90;;;;;;4996101;28;20129;-70
2022/10/16 07:31:04;;;;;;;6.75;3.47;;;12.70;99.90;;;;;;5022483;28;20045;-69
2022/10/16 07:33:31;;;;;;;8.73;3.35;;;12.70;99.90;;;;;;4998848;28;20439;-70
2022/10/16 07:35:57;;;;;;;8.23;3.58;;;12.70;99.90;;;;;;4999891;28;20487;-69
2022/10/16 07:38:23;;;;;;;7.78;3.30;;;12.80;99.90;;;;;;4999659;28;20455;-69
2022/10/16 07:41:00;;;;;;;6.60;3.08;;;12.70;99.90;;;;;;4996276;28;20058;-70
2022/10/16 07:43:26;;;;;;;11.25;3.83;;;12.80;99.90;;;;;;4987950;28;20100;-68
2022/10/16 07:45:53;;;;;;;3.55;2.83;;;12.80;99.90;;;;;;4966989;28;20565;-70
2022/10/16 07:48:19;;;;;;;7.97;3.65;;;12.90;99.90;;;;;;4984861;28;20034;-70
2022/10/16 07:50:45;;;;;;;4.70;2.90;;;13.00;99.90;;;;;;4987798;28;20034;-70
2022/10/16 07:53:11;;;;;;;5.47;2.90;;;13.00;99.90;;;;;;4982252;28;20045;-70
2022/10/16 07:55:37;;;;;;;7.25;3.65;;;13.00;99.90;;;;;;4978913;28;20062;-70
2022/10/16 07:58:07;;;;;;;7.32;3.10;;;13.10;99.90;;;;;;4982556;28;20039;-70
2022/10/16 08:00:33;;;;;;;7.10;3.20;;;13.10;99.90;;;;;;4982309;28;20042;-70
2022/10/16 08:03:01;;;;;;;6.45;2.97;;;13.10;99.90;;;;;;4978335;28;20061;-69
2022/10/16 08:05:32;;;;;;;7.28;2.88;;;13.10;99.90;;;;;;4965320;28;20484;-70
2022/10/16 08:07:58;;;;;;;7.55;3.00;;;13.10;99.90;;;;;;4964656;28;20534;-70
2022/10/16 08:10:26;;;;;;;8.77;3.38;;;13.20;99.90;;;;;;4989816;28;20038;-70
2022/10/16 08:12:52;;;;;;;5.30;2.63;;;13.20;99.90;;;;;;4986459;28;20050;-70
2022/10/16 08:15:19;;;;;;;4.10;2.60;;;13.20;99.90;;;;;;4983610;28;20039;-70
2022/10/16 08:17:44;;;;;;;4.97;2.90;;;13.30;99.90;;;;;;4987029;28;20042;-70
2022/10/16 08:20:11;;;;;;;4.68;2.55;;;13.30;99.90;;;;;;4985629;28;20492;-69
2022/10/16 08:22:37;;;;;;;6.75;3.03;;;13.40;99.90;;;;;;4979966;28;20047;-70
2022/10/16 08:25:03;;;;;;;7.07;2.78;;;13.30;99.90;;;;;;4966667;28;20037;-70
2022/10/16 08:27:33;;;;;;;4.45;2.25;;;13.40;99.90;;;;;;4953891;28;20050;-70
2022/10/16 08:29:58;;;;;;;3.88;2.20;;;13.40;99.90;;;;;;4984225;28;20057;-70
2022/10/16 08:32:24;;;;;;;7.32;2.55;;;13.50;99.90;;;;;;4948686;28;20035;-70
2022/10/16 08:34:50;;;;;;;5.00;1.95;;;13.50;99.90;;;;;;4986386;28;20050;-70
2022/10/16 08:37:16;;;;;;;3.60;1.83;;;13.50;99.90;;;;;;4941723;28;20035;-70
2022/10/16 08:39:41;;;;;;;3.85;2.00;;;13.60;99.90;;;;;;4956972;28;20045;-70
2022/10/16 08:42:24;;;;;;;3.75;2.03;;;13.60;99.90;;;;;;4960002;28;20108;-70
2022/10/16 08:45:02;;;;;;;2.92;1.75;;;13.60;99.90;;;;;;5003848;28;20046;-70
2022/10/16 08:47:49;;;;;;;7.82;2.45;;;13.70;99.90;;;;;;5006378;28;20607;-69
2022/10/16 08:50:27;;;;;;;3.70;1.90;;;13.80;99.90;;;;;;5004595;28;20041;-70
2022/10/16 08:52:54;;;;;;;3.75;2.03;;;13.80;99.90;;;;;;5003915;28;20045;-70
2022/10/16 08:55:43;;;;;;;5.88;2.80;;;13.90;99.90;;;;;;5002678;28;20031;-70
2022/10/16 08:58:13;;;;;;;6.03;2.45;;;13.90;99.90;;;;;;4999288;28;20038;-69
2022/10/16 09:00:40;;;;;;;5.78;2.50;;;14.00;99.90;;;;;;5002966;28;20049;-70
2022/10/16 09:03:18;;;;;;;4.22;2.22;;;14.10;99.90;;;;;;5003195;28;20092;-70
2022/10/16 09:06:32;;;;;;;7.57;2.20;;;14.10;99.90;;;;;;5004345;28;20609;-69
2022/10/16 09:09:24;;;;;;;6.20;2.60;;;14.10;99.90;;;;;;4951460;28;20079;-70
2022/10/16 09:12:04;;;;;;;6.07;2.42;;;14.20;99.90;;;;;;5001775;28;20447;-70
2022/10/16 09:15:01;;;;;;;6.05;2.40;;;14.30;99.90;;;;;;5002780;28;20168;-70
2022/10/16 09:17:39;;;;;;;5.10;2.30;;;14.40;99.90;;;;;;4991685;28;20540;-69
2022/10/16 09:20:19;;;;;;;6.22;2.30;;;14.50;99.90;;;;;;5007482;28;20080;-69
2022/10/16 09:22:44;;;;;;;3.95;2.17;;;14.70;99.90;;;;;;5001897;28;20030;-68
2022/10/16 09:25:13;;;;;;;3.55;1.90;;;14.80;99.90;;;;;;5002314;28;20093;-70
2022/10/16 09:27:39;;;;;;;7.63;2.40;;;14.80;99.90;;;;;;5003041;28;20464;-70
2022/10/16 09:30:13;;;;;;;6.93;2.47;;;14.90;99.90;;;;;;4999613;28;20048;-68
2022/10/16 09:32:41;;;;;;;2.67;1.90;;;15.10;99.90;;;;;;5004688;28;20069;-70
2022/10/16 09:35:15;;;;;;;7.55;2.15;;;15.10;99.90;;;;;;4999293;28;20487;-70
2022/10/16 09:37:44;;;;;;;8.30;2.20;;;15.20;99.90;;;;;;5002630;28;20042;-70
2022/10/16 09:40:31;;;;;;;6.05;2.30;;;15.30;99.90;;;;;;5009165;28;20450;-70
2022/10/16 09:43:20;;;;;;;7.78;2.20;;;15.30;99.90;;;;;;4988324;28;20124;-70
2022/10/16 09:46:19;;;;;;;5.03;1.70;;;15.30;99.90;;;;;;5002395;28;20485;-70
2022/10/16 09:48:49;;;;;;;5.82;1.88;;;15.40;99.90;;;;;;4989878;28;20034;-70
2022/10/16 09:51:23;;;;;;;6.57;2.40;;;15.50;99.90;;;;;;5003669;28;20498;-70
2022/10/16 09:53:49;;;;;;;4.75;2.10;;;15.50;99.90;;;;;;5003247;28;20605;-70
2022/10/16 09:56:29;;;;;;;8.27;2.10;;;15.60;99.90;;;;;;5019761;28;20091;-70
2022/10/16 09:58:58;;;;;;;6.60;2.05;;;15.60;99.90;;;;;;5005538;28;20503;-70
2022/10/16 10:01:39;;;;;;;6.78;2.28;;;15.60;99.90;;;;;;5002369;28;20041;-69
2022/10/16 10:04:06;;;;;;;8.55;2.55;;;15.70;99.90;;;;;;5023323;28;20426;-69
2022/10/16 10:06:38;;;;;;;11.07;3.42;;;15.80;99.90;;;;;;4990742;28;20067;-70
2022/10/16 10:09:17;;;;;;;8.07;2.00;;;15.80;99.90;;;;;;4998846;28;20050;-70
2022/10/16 10:11:49;;;;;;;10.95;2.70;;;15.90;99.90;;;;;;5001746;28;20040;-69
2022/10/16 10:14:20;;;;;;;9.27;2.17;;;15.90;99.90;;;;;;5005520;28;20470;-70
2022/10/16 10:16:46;;;;;;;11.60;2.45;;;16.00;99.90;;;;;;5001298;28;20041;-70
2022/10/16 10:19:21;;;;;;;5.28;2.33;;;16.00;99.90;;;;;;4988003;28;20052;-70
2022/10/16 10:21:48;;;;;;;9.07;2.10;;;16.00;99.90;;;;;;4982412;28;20501;-70
2022/10/16 10:24:16;;;;;;;16.90;2.63;;;16.10;99.90;;;;;;5006472;28;20100;-70
2022/10/16 10:27:13;;;;;;;7.70;1.80;;;16.20;99.90;;;;;;5004112;28;20107;-70
2022/10/16 10:29:57;;;;;;;12.18;2.20;;;16.20;99.90;;;;;;4999715;28;20057;-70
2022/10/16 10:32:36;;;;;;;10.55;2.35;;;16.30;99.90;;;;;;4999928;28;20046;-70
2022/10/16 10:35:35;;;;;;;8.82;2.13;;;16.20;99.90;;;;;;5004041;28;20107;-70
2022/10/16 10:38:14;;;;;;;15.52;2.65;;;16.30;99.90;;;;;;4984028;28;20398;-70
2022/10/16 10:40:47;;;;;;;12.23;2.53;;;16.40;99.90;;;;;;5021452;28;20055;-70
2022/10/16 10:43:25;;;;;;;8.85;2.08;;;16.40;99.90;;;;;;5004719;28;20050;-70
2022/10/16 10:45:58;;;;;;;13.32;2.95;;;16.40;99.90;;;;;;5002828;28;20537;-70
2022/10/16 10:48:36;;;;;;;7.53;1.95;;;16.40;99.90;;;;;;5019473;28;20207;-70
2022/10/16 10:51:10;;;;;;;5.75;1.88;;;16.30;99.90;;;;;;5000853;28;20403;-70
2022/10/16 10:53:50;;;;;;;8.32;2.10;;;16.30;99.90;;;;;;5008659;28;20041;-70
2022/10/16 10:56:39;;;;;;;12.50;2.38;;;16.20;99.90;;;;;;5025298;28;20418;-70
2022/10/16 11:00:06;;;;;;;10.02;2.70;;;16.30;99.90;;;;;;5004603;28;20044;-70
2022/10/16 11:02:49;;;;;;;7.35;2.13;;;16.30;99.90;;;;;;4949227;28;20049;-70
2022/10/16 11:05:33;;;;;;;6.05;2.50;;;16.30;99.90;;;;;;5004072;28;20041;-70
2022/10/16 11:08:22;;;;;;;6.93;2.45;;;16.20;99.90;;;;;;5005785;28;20042;-70
2022/10/16 11:10:54;;;;;;;8.25;2.17;;;16.20;99.90;;;;;;5005296;28;20041;-70
2022/10/16 11:13:52;;;;;;;7.90;2.55;;;16.10;99.90;;;;;;5002381;28;20073;-70
2022/10/16 11:16:37;;;;;;;9.65;2.40;;;16.10;99.90;;;;;;4970197;28;20579;-70
2022/10/16 11:19:35;;;;;;;9.48;2.50;;;16.10;99.90;;;;;;4986261;28;20124;-70
2022/10/16 11:22:25;;;;;;;11.73;2.65;;;16.30;99.90;;;;;;5007542;28;20079;-70
2022/10/16 11:25:02;;;;;;;9.38;2.60;;;16.30;99.90;;;;;;5005923;28;20044;-70
2022/10/16 11:27:47;;;;;;;11.07;2.33;;;16.40;99.90;;;;;;5022489;28;20041;-70
2022/10/16 11:30:15;;;;;;;8.57;2.38;;;16.60;99.90;;;;;;5008861;28;20045;-70
2022/10/16 11:33:21;;;;;;;9.82;2.22;;;16.80;99.90;;;;;;5008408;28;20103;-70
2022/10/16 11:35:52;;;;;;;17.33;2.75;;;16.90;99.90;;;;;;5021775;28;20686;-70
2022/10/16 11:40:53;;;;;;;8.35;2.20;;;17.10;99.90;;;;;;4966685;22;20435;-70
2022/10/16 11:43:28;;;;;;;10.32;2.65;;;17.00;99.90;;;;;;4972250;28;20046;-70
2022/10/16 11:45:58;;;;;;;10.60;2.30;;;17.20;99.90;;;;;;4987742;28;20038;-70
2022/10/16 11:49:16;;;;;;;6.43;1.92;;;17.30;99.90;;;;;;4989457;28;20586;-71
2022/10/16 11:51:51;;;;;;;6.78;2.13;;;17.40;99.90;;;;;;4955232;28;20396;-71
2022/10/16 11:54:21;;;;;;;7.43;2.75;;;17.50;99.90;;;;;;4993831;28;20038;-70
2022/10/16 11:56:51;;;;;;;6.70;2.20;;;17.50;99.90;;;;;;4992862;28;20147;-70
2022/10/16 11:59:43;;;;;;;12.40;2.65;;;17.40;99.90;;;;;;4995880;28;20038;-71
2022/10/16 12:02:27;;;;;;;5.82;1.98;;;17.20;99.90;;;;;;4964722;28;20057;-70
2022/10/16 12:05:21;;;;;;;9.18;2.00;;;17.00;99.90;;;;;;5012475;28;20124;-70
2022/10/16 12:08:09;;;;;;;7.68;2.35;;;16.70;99.90;;;;;;4974484;28;20049;-70
2022/10/16 12:10:38;;;;;;;10.50;2.58;;;16.80;99.90;;;;;;4997399;28;20046;-70
2022/10/16 12:13:24;;;;;;;7.82;2.17;;;16.90;99.90;;;;;;4959977;28;20034;-71
2022/10/16 12:15:50;;;;;;;8.60;1.98;;;17.10;99.90;;;;;;4988194;28;20042;-70
2022/10/16 12:18:24;;;;;;;6.85;2.15;;;17.20;99.90;;;;;;4970499;28;20399;-70
2022/10/16 12:21:05;;;;;;;7.38;2.13;;;17.30;99.90;;;;;;5000240;28;20403;-70
2022/10/16 12:23:33;;;;;;;6.10;2.30;;;17.40;99.90;;;;;;4974302;28;20041;-70
2022/10/16 12:26:02;;;;;;;8.65;2.42;;;17.50;99.90;;;;;;5009340;28;20034;-70
2022/10/16 12:28:30;;;;;;;10.52;2.38;;;17.60;99.90;;;;;;4989559;28;20121;-70
2022/10/16 12:31:03;;;;;;;6.43;2.17;;;17.50;99.90;;;;;;4988530;28;20046;-71
2022/10/16 12:33:41;;;;;;;7.72;2.45;;;17.60;99.90;;;;;;4988137;28;20048;-71
2022/10/16 12:36:15;;;;;;;10.98;2.15;;;17.60;99.90;;;;;;4991501;28;20037;-71
2022/10/16 12:38:50;;;;;;;8.77;1.98;;;17.50;99.90;;;;;;4985501;28;20108;-71
2022/10/16 12:41:28;;;;;;;8.27;2.20;;;17.40;99.90;;;;;;4986839;28;20096;-70
2022/10/16 12:43:54;;;;;;;8.45;2.20;;;17.20;99.90;;;;;;4973390;28;20038;-71
2022/10/16 12:46:32;;;;;;;10.13;2.47;;;17.10;99.90;;;;;;5000925;28;20042;-70
2022/10/16 12:49:31;;;;;;;9.50;2.00;;;17.10;99.90;;;;;;4983732;28;20054;-71
2022/10/16 12:51:58;;;;;;;7.50;1.67;;;17.20;99.90;;;;;;4985321;28;20431;-70
2022/10/16 12:54:31;;;;;;;6.32;2.00;;;17.30;99.90;;;;;;4968989;28;20111;-71
2022/10/16 12:57:26;;;;;;;9.88;2.05;;;17.50;99.90;;;;;;4972076;28;20084;-70
2022/10/16 13:00:05;;;;;;;6.40;2.22;;;17.60;99.90;;;;;;5000933;28;20041;-71
2022/10/16 13:02:36;;;;;;;7.35;2.28;;;17.60;99.90;;;;;;4990362;28;20827;-70
2022/10/16 13:05:20;;;;;;;10.23;2.37;;;17.50;99.90;;;;;;4985874;28;20044;-70
2022/10/16 13:07:56;;;;;;;13.20;2.67;;;17.60;99.90;;;;;;4987398;28;20049;-70
2022/10/16 13:10:52;;;;;;;8.60;2.63;;;17.50;99.90;;;;;;4988634;28;20052;-70
2022/10/16 13:13:36;;;;;;;7.53;2.00;;;17.50;99.90;;;;;;4986066;28;20048;-70